createdAt,value
2023-04-30T00:01:00.058Z,100324.44
2023-04-30T00:04:02.465Z,100311.22
2023-04-30T00:07:04.902Z,100313.81
2023-04-30T00:10:08.371Z,100313.22
2023-04-30T00:13:10.887Z,100312.78
2023-04-30T00:16:13.265Z,100322.81
2023-04-30T00:19:15.928Z,100316.00
2023-04-30T00:22:18.257Z,100316.34
2023-04-30T00:25:21.191Z,100311.56
2023-04-30T00:28:23.594Z,100310.75
2023-04-30T00:31:26.180Z,100317.75
2023-04-30T00:34:28.788Z,100321.78
2023-04-30T00:37:31.258Z,100323.63
2023-04-30T00:40:36.862Z,100323.19
2023-04-30T00:43:39.242Z,100319.22
2023-04-30T00:46:41.754Z,100311.00
2023-04-30T00:49:44.098Z,100322.16
2023-04-30T00:52:46.926Z,100320.81
2023-04-30T00:55:49.275Z,100308.91
2023-04-30T00:58:54.422Z,100315.09
2023-04-30T01:01:56.827Z,100305.25
2023-04-30T01:04:59.260Z,100313.41
2023-04-30T01:08:01.605Z,100304.63
2023-04-30T01:11:22.553Z,100301.38
2023-04-30T01:14:43.432Z,100303.84
2023-04-30T01:18:04.712Z,100307.66
2023-04-30T01:21:07.139Z,100305.09
2023-04-30T01:24:24.803Z,100308.91
2023-04-30T01:28:04.888Z,100309.47
2023-04-30T01:31:14.348Z,100308.09
2023-04-30T01:34:16.749Z,100301.69
2023-04-30T01:37:25.088Z,100291.03
2023-04-30T01:40:33.132Z,100299.56
2023-04-30T01:44:14.090Z,100305.81
2023-04-30T01:47:37.728Z,100310.81
2023-04-30T01:50:47.602Z,100306.00
2023-04-30T01:53:49.932Z,100311.63
2023-04-30T01:57:21.773Z,100313.09
2023-04-30T02:00:25.317Z,100316.44
2023-04-30T02:03:27.700Z,100318.44
2023-04-30T02:06:30.498Z,100326.69
2023-04-30T02:09:34.089Z,100319.72
2023-04-30T02:12:36.494Z,100321.69
2023-04-30T02:15:39.072Z,100323.28
2023-04-30T02:18:41.621Z,100324.91
2023-04-30T02:21:43.956Z,100327.50
2023-04-30T02:24:46.445Z,100322.09
2023-04-30T02:27:50.614Z,100319.69
2023-04-30T02:30:53.049Z,100326.94
2023-04-30T02:33:55.460Z,100329.88
2023-04-30T02:36:58.176Z,100327.72
2023-04-30T02:40:00.803Z,100332.13
2023-04-30T02:43:03.200Z,100339.13
2023-04-30T02:46:05.615Z,100331.59
2023-04-30T02:49:08.092Z,100325.63
2023-04-30T02:52:10.463Z,100337.19
2023-04-30T02:55:13.492Z,100340.97
2023-04-30T02:58:15.869Z,100342.75
2023-04-30T03:01:18.239Z,100337.94
2023-04-30T03:04:20.614Z,100336.75
2023-04-30T03:07:23.001Z,100334.75
2023-04-30T03:10:25.580Z,100327.94
2023-04-30T03:13:27.922Z,100331.53
2023-04-30T03:16:31.205Z,100334.56
2023-04-30T03:19:34.020Z,100344.38
2023-04-30T03:22:36.373Z,100331.34
2023-04-30T03:25:38.732Z,100333.69
2023-04-30T03:28:41.885Z,100334.16
2023-04-30T03:31:44.241Z,100332.13
2023-04-30T03:34:46.708Z,100325.53
2023-04-30T03:37:49.060Z,100324.75
2023-04-30T03:40:51.367Z,100319.53
2023-04-30T03:43:54.613Z,100327.75
2023-04-30T03:46:57.172Z,100335.56
2023-04-30T03:49:59.491Z,100332.34
2023-04-30T03:53:01.838Z,100337.94
2023-04-30T03:56:04.970Z,100347.78
2023-04-30T03:59:07.846Z,100350.59
2023-04-30T04:02:10.282Z,100357.03
2023-04-30T04:05:12.765Z,100332.22
2023-04-30T04:08:15.361Z,100367.47
2023-04-30T04:11:17.748Z,100377.69
2023-04-30T04:14:20.101Z,100384.03
2023-04-30T04:17:22.777Z,100387.06
2023-04-30T04:20:25.615Z,100382.25
2023-04-30T04:23:27.984Z,100385.22
2023-04-30T04:26:30.312Z,100393.50
2023-04-30T04:29:32.830Z,100391.25
2023-04-30T04:32:46.603Z,100392.66
2023-04-30T04:35:49.057Z,100399.69
2023-04-30T04:38:51.443Z,100395.66
2023-04-30T04:41:53.790Z,100404.44
2023-04-30T04:44:56.120Z,100415.84
2023-04-30T04:47:58.685Z,100412.28
2023-04-30T04:51:01.265Z,100421.13
2023-04-30T04:54:04.173Z,100427.50
2023-04-30T04:57:06.537Z,100430.13
2023-04-30T05:00:10.367Z,100421.13
2023-04-30T05:03:13.576Z,100441.16
2023-04-30T05:06:16.149Z,100438.13
2023-04-30T05:09:18.564Z,100438.63
2023-04-30T05:12:21.134Z,100447.28
2023-04-30T05:15:23.698Z,100453.09
2023-04-30T05:18:26.141Z,100442.84
2023-04-30T05:21:29.879Z,100449.44
2023-04-30T05:24:32.247Z,100427.13
2023-04-30T05:27:34.671Z,100437.19
2023-04-30T05:30:37.148Z,100450.47
2023-04-30T05:33:40.863Z,100450.81
2023-04-30T05:36:44.289Z,100445.00
2023-04-30T05:39:47.036Z,100432.56
2023-04-30T05:42:49.412Z,100461.94
2023-04-30T05:45:51.862Z,100465.25
2023-04-30T05:48:54.244Z,100469.91
2023-04-30T05:51:56.583Z,100465.03
2023-04-30T05:54:58.891Z,100465.34
2023-04-30T05:58:01.356Z,100472.44
2023-04-30T06:01:04.038Z,100480.25
2023-04-30T06:04:06.422Z,100466.38
2023-04-30T06:07:08.854Z,100476.03
2023-04-30T06:10:12.687Z,100481.25
2023-04-30T06:13:15.306Z,100479.78
2023-04-30T06:16:17.686Z,100476.69
2023-04-30T06:19:21.006Z,100469.25
2023-04-30T06:22:23.588Z,100475.84
2023-04-30T06:25:26.573Z,100478.06
2023-04-30T06:28:28.958Z,100484.06
2023-04-30T06:31:31.474Z,100477.56
2023-04-30T06:34:33.945Z,100485.25
2023-04-30T06:37:38.037Z,100486.19
2023-04-30T06:40:40.916Z,100477.88
2023-04-30T06:43:46.414Z,100488.84
2023-04-30T06:46:48.733Z,100503.31
2023-04-30T06:49:51.190Z,100500.75
2023-04-30T06:52:53.526Z,100504.34
2023-04-30T06:55:56.011Z,100510.69
2023-04-30T06:58:58.399Z,100524.47
2023-04-30T07:02:01.022Z,100539.31
2023-04-30T07:05:03.580Z,100538.69
2023-04-30T07:08:06.993Z,100544.88
2023-04-30T07:11:09.490Z,100547.16
2023-04-30T07:14:11.856Z,100544.00
2023-04-30T07:17:14.190Z,100548.94
2023-04-30T07:20:16.830Z,100534.28
2023-04-30T07:23:19.235Z,100570.28
2023-04-30T07:26:25.008Z,100571.38
2023-04-30T07:29:27.384Z,100573.13
2023-04-30T07:32:29.685Z,100555.69
2023-04-30T07:35:32.000Z,100567.91
2023-04-30T07:38:34.360Z,100572.50
2023-04-30T07:41:36.709Z,100571.25
2023-04-30T07:44:39.251Z,100568.28
2023-04-30T07:47:41.670Z,100557.63
2023-04-30T07:50:44.090Z,100578.03
2023-04-30T07:53:47.082Z,100561.53
2023-04-30T07:56:49.447Z,100564.75
2023-04-30T07:59:53.171Z,100531.66
2023-04-30T08:02:55.741Z,100566.13
2023-04-30T08:05:58.208Z,100553.38
2023-04-30T08:09:00.587Z,100535.34
2023-04-30T08:12:05.044Z,100555.59
2023-04-30T08:15:07.857Z,100552.84
2023-04-30T08:18:10.243Z,100557.81
2023-04-30T08:21:13.414Z,100564.59
2023-04-30T08:24:15.822Z,100554.16
2023-04-30T08:27:18.159Z,100557.09
2023-04-30T08:30:20.648Z,100557.50
2023-04-30T08:33:23.112Z,100543.75
2023-04-30T08:36:25.692Z,100555.25
2023-04-30T08:39:28.069Z,100560.56
2023-04-30T08:42:31.547Z,100560.44
2023-04-30T08:45:34.700Z,100561.56
2023-04-30T08:48:37.079Z,100562.69
2023-04-30T08:51:39.402Z,100553.91
2023-04-30T08:54:41.704Z,100569.94
2023-04-30T08:57:44.092Z,100556.47
2023-04-30T09:00:46.465Z,100560.53
2023-04-30T09:03:49.005Z,100550.56
2023-04-30T09:06:53.656Z,100550.50
2023-04-30T09:09:56.281Z,100561.47
2023-04-30T09:13:02.761Z,100558.50
2023-04-30T09:16:05.474Z,100560.44
2023-04-30T09:19:07.821Z,100559.91
2023-04-30T09:22:23.732Z,100559.81
2023-04-30T09:25:26.233Z,100544.00
2023-04-30T09:28:29.315Z,100554.47
2023-04-30T09:31:31.661Z,100560.69
2023-04-30T09:34:34.759Z,100548.34
2023-04-30T09:37:40.873Z,100556.66
2023-04-30T09:40:43.263Z,100551.78
2023-04-30T09:43:45.673Z,100544.75
2023-04-30T09:46:50.146Z,100552.50
2023-04-30T09:49:53.038Z,100551.53
2023-04-30T09:52:55.494Z,100546.66
2023-04-30T09:55:58.548Z,100544.69
2023-04-30T09:59:00.929Z,100541.22
2023-04-30T10:02:04.858Z,100529.63
2023-04-30T10:05:07.567Z,100537.94
2023-04-30T10:08:30.939Z,100519.16
2023-04-30T10:11:33.319Z,100522.91
2023-04-30T10:14:35.713Z,100523.63
2023-04-30T10:17:41.166Z,100536.44
2023-04-30T10:20:43.769Z,100529.81
2023-04-30T10:23:46.155Z,100529.28
2023-04-30T10:26:48.763Z,100529.56
2023-04-30T10:29:51.292Z,100532.97
2023-04-30T10:33:08.397Z,100524.28
2023-04-30T10:36:13.449Z,100517.41
2023-04-30T10:39:18.797Z,100525.59
2023-04-30T10:42:21.115Z,100515.78
2023-04-30T10:45:39.516Z,100523.47
2023-04-30T10:48:41.933Z,100509.66
2023-04-30T10:51:48.241Z,100516.06
2023-04-30T10:54:51.870Z,100518.91
2023-04-30T10:57:55.570Z,100512.66
2023-04-30T11:01:02.413Z,100506.28
2023-04-30T11:04:08.971Z,100510.00
2023-04-30T11:07:11.680Z,100507.28
2023-04-30T11:10:14.026Z,100505.69
2023-04-30T11:13:16.424Z,100506.78
2023-04-30T11:16:20.337Z,100506.78
2023-04-30T11:19:22.782Z,100512.06
2023-04-30T11:22:25.436Z,100502.28
2023-04-30T11:25:27.779Z,100520.56
2023-04-30T11:28:34.738Z,100503.75
2023-04-30T11:31:37.126Z,100505.28
2023-04-30T11:34:39.486Z,100494.09
2023-04-30T11:37:46.377Z,100499.66
2023-04-30T11:40:51.460Z,100493.69
2023-04-30T11:43:53.812Z,100501.16
2023-04-30T11:46:56.274Z,100497.97
2023-04-30T11:49:58.658Z,100500.34
2023-04-30T11:53:05.535Z,100496.75
2023-04-30T11:56:08.391Z,100501.53
2023-04-30T11:59:10.969Z,100503.84
2023-04-30T12:02:16.828Z,100490.59
2023-04-30T12:05:23.486Z,100486.72
2023-04-30T12:08:26.816Z,100494.91
2023-04-30T12:11:30.321Z,100484.31
2023-04-30T12:14:34.909Z,100484.22
2023-04-30T12:17:37.320Z,100492.69
2023-04-30T12:20:40.202Z,100487.31
2023-04-30T12:23:42.548Z,100489.78
2023-04-30T12:26:45.072Z,100481.44
2023-04-30T12:29:49.125Z,100492.53
2023-04-30T12:32:53.260Z,100484.56
2023-04-30T12:35:56.764Z,100493.69
2023-04-30T12:39:12.909Z,100473.59
2023-04-30T12:42:19.153Z,100479.81
2023-04-30T12:45:43.256Z,100478.19
2023-04-30T12:48:45.829Z,100478.34
2023-04-30T12:51:48.600Z,100471.81
2023-04-30T12:54:50.934Z,100473.56
2023-04-30T12:58:11.950Z,100467.50
2023-04-30T13:01:17.510Z,100451.47
2023-04-30T13:04:19.888Z,100453.09
2023-04-30T13:07:23.194Z,100445.16
2023-04-30T13:10:25.598Z,100462.13
2023-04-30T13:13:27.982Z,100441.94
2023-04-30T13:16:31.239Z,100446.66
2023-04-30T13:19:34.801Z,100450.84
2023-04-30T13:22:37.906Z,100447.53
2023-04-30T13:25:40.734Z,100420.84
2023-04-30T13:28:43.483Z,100438.25
2023-04-30T13:31:46.063Z,100444.22
2023-04-30T13:34:48.576Z,100434.31
2023-04-30T13:37:52.702Z,100442.44
2023-04-30T13:40:55.058Z,100437.19
2023-04-30T13:43:57.465Z,100435.38
2023-04-30T13:46:59.908Z,100445.66
2023-04-30T13:50:03.297Z,100428.22
2023-04-30T13:53:05.774Z,100440.91
2023-04-30T13:56:08.191Z,100437.91
2023-04-30T13:59:11.111Z,100431.47
2023-04-30T14:02:13.421Z,100442.25
2023-04-30T14:05:15.954Z,100436.84
2023-04-30T14:08:18.308Z,100440.84
2023-04-30T14:11:20.974Z,100439.84
2023-04-30T14:14:23.347Z,100439.84
2023-04-30T14:17:27.070Z,100436.47
2023-04-30T14:20:29.525Z,100430.34
2023-04-30T14:23:31.880Z,100420.81
2023-04-30T14:26:34.252Z,100427.97
2023-04-30T14:29:36.560Z,100434.06
2023-04-30T14:32:38.988Z,100443.25
2023-04-30T14:35:41.738Z,100437.34
2023-04-30T14:38:44.232Z,100424.97
2023-04-30T14:41:46.567Z,100431.59
2023-04-30T14:44:48.958Z,100430.50
2023-04-30T14:47:51.460Z,100441.44
2023-04-30T14:50:53.836Z,100435.50
2023-04-30T14:53:56.262Z,100429.72
2023-04-30T14:56:58.835Z,100433.22
2023-04-30T15:00:01.819Z,100432.69
2023-04-30T15:03:04.374Z,100441.69
2023-04-30T15:06:07.049Z,100432.38
2023-04-30T15:09:09.451Z,100442.75
2023-04-30T15:12:11.789Z,100439.56
2023-04-30T15:15:14.327Z,100444.28
2023-04-30T15:18:16.722Z,100444.81
2023-04-30T15:21:19.048Z,100434.81
2023-04-30T15:24:21.507Z,100432.53
2023-04-30T15:27:23.934Z,100434.78
2023-04-30T15:30:26.300Z,100432.72
2023-04-30T15:33:30.731Z,100442.22
2023-04-30T15:36:33.309Z,100437.81
2023-04-30T15:39:35.636Z,100449.19
2023-04-30T15:42:38.311Z,100445.94
2023-04-30T15:45:40.793Z,100449.41
2023-04-30T15:48:43.164Z,100445.88
2023-04-30T15:51:45.786Z,100438.56
2023-04-30T15:54:48.122Z,100441.53
2023-04-30T15:57:50.707Z,100452.72
2023-04-30T16:00:53.800Z,100439.72
2023-04-30T16:03:56.547Z,100440.41
2023-04-30T16:06:59.642Z,100442.63
2023-04-30T16:10:02.041Z,100444.19
2023-04-30T16:13:04.809Z,100446.19
2023-04-30T16:16:08.888Z,100441.50
2023-04-30T16:19:12.561Z,100436.72
2023-04-30T16:22:14.955Z,100450.22
2023-04-30T16:25:17.377Z,100419.56
2023-04-30T16:28:19.741Z,100438.38
2023-04-30T16:31:23.478Z,100449.84
2023-04-30T16:34:26.305Z,100442.81
2023-04-30T16:37:28.958Z,100450.22
2023-04-30T16:40:31.307Z,100441.28
2023-04-30T16:43:33.686Z,100445.16
2023-04-30T16:46:36.465Z,100444.22
2023-04-30T16:49:38.995Z,100452.66
2023-04-30T16:52:41.365Z,100450.59
2023-04-30T16:55:43.871Z,100453.00
2023-04-30T16:58:46.419Z,100425.84
2023-04-30T17:01:48.796Z,100452.25
2023-04-30T17:04:51.233Z,100457.38
2023-04-30T17:07:53.589Z,100460.34
2023-04-30T17:10:55.966Z,100466.66
2023-04-30T17:13:58.356Z,100469.44
2023-04-30T17:17:00.760Z,100470.88
2023-04-30T17:20:03.723Z,100466.88
2023-04-30T17:23:06.132Z,100468.72
2023-04-30T17:26:08.466Z,100464.16
2023-04-30T17:29:10.969Z,100470.28
2023-04-30T17:32:13.424Z,100474.28
2023-04-30T17:35:16.358Z,100480.84
2023-04-30T17:38:18.728Z,100484.47
2023-04-30T17:41:21.122Z,100471.47
2023-04-30T17:44:23.514Z,100483.34
2023-04-30T17:47:25.926Z,100461.53
2023-04-30T17:50:28.261Z,100491.78
2023-04-30T17:53:30.576Z,100498.97
2023-04-30T17:56:33.546Z,100497.72
2023-04-30T17:59:35.974Z,100498.31
2023-04-30T18:02:38.527Z,100508.25
2023-04-30T18:05:42.364Z,100509.00
2023-04-30T18:08:44.812Z,100497.53
2023-04-30T18:11:47.181Z,100500.00
2023-04-30T18:14:49.513Z,100516.91
2023-04-30T18:17:52.686Z,100510.63
2023-04-30T18:20:55.836Z,100520.09
2023-04-30T18:23:58.190Z,100523.50
2023-04-30T18:27:00.522Z,100517.56
2023-04-30T18:30:03.273Z,100524.38
2023-04-30T18:33:06.111Z,100532.00
2023-04-30T18:36:08.488Z,100531.50
2023-04-30T18:39:12.518Z,100533.69
2023-04-30T18:42:14.890Z,100501.94
2023-04-30T18:45:18.238Z,100537.47
2023-04-30T18:48:22.950Z,100537.66
2023-04-30T18:51:25.533Z,100541.31
2023-04-30T18:54:28.099Z,100546.41
2023-04-30T18:57:30.457Z,100545.13
2023-04-30T19:00:32.800Z,100547.84
2023-04-30T19:03:35.301Z,100554.88
2023-04-30T19:06:37.903Z,100558.31
2023-04-30T19:09:40.414Z,100547.63
2023-04-30T19:12:44.030Z,100561.72
2023-04-30T19:15:48.725Z,100557.66
2023-04-30T19:18:52.279Z,100567.47
2023-04-30T19:21:54.706Z,100535.84
2023-04-30T19:24:57.049Z,100574.75
2023-04-30T19:27:59.551Z,100573.34
2023-04-30T19:31:02.037Z,100572.94
2023-04-30T19:34:04.487Z,100582.66
2023-04-30T19:37:07.255Z,100576.53
2023-04-30T19:40:12.912Z,100584.13
2023-04-30T19:43:15.443Z,100584.53
2023-04-30T19:46:17.816Z,100579.16
2023-04-30T19:49:20.163Z,100591.81
2023-04-30T19:52:22.816Z,100588.59
2023-04-30T19:55:25.166Z,100596.53
2023-04-30T19:58:27.499Z,100601.03
2023-04-30T20:01:29.938Z,100589.47
2023-04-30T20:04:32.374Z,100589.09
2023-04-30T20:07:34.704Z,100596.66
2023-04-30T20:10:38.138Z,100598.41
2023-04-30T20:13:40.849Z,100599.41
2023-04-30T20:16:43.502Z,100603.03
2023-04-30T20:19:45.914Z,100605.97
2023-04-30T20:22:50.200Z,100600.38
2023-04-30T20:25:53.565Z,100609.97
2023-04-30T20:28:56.440Z,100604.38
2023-04-30T20:31:58.910Z,100603.63
2023-04-30T20:35:03.353Z,100605.50
2023-04-30T20:38:06.102Z,100608.22
2023-04-30T20:41:08.434Z,100607.88
2023-04-30T20:44:11.564Z,100602.56
2023-04-30T20:47:16.852Z,100603.31
2023-04-30T20:50:20.502Z,100595.13
2023-04-30T20:53:23.066Z,100599.75
2023-04-30T20:56:25.969Z,100608.25
2023-04-30T20:59:28.374Z,100604.50
2023-04-30T21:02:31.169Z,100605.50
2023-04-30T21:05:34.330Z,100601.81
2023-04-30T21:08:36.709Z,100615.00
2023-04-30T21:11:39.225Z,100602.25
2023-04-30T21:14:41.614Z,100610.31
2023-04-30T21:17:44.070Z,100583.50
2023-04-30T21:20:46.448Z,100599.25
2023-04-30T21:23:48.783Z,100594.03
2023-04-30T21:26:51.163Z,100606.25
2023-04-30T21:29:53.712Z,100601.47
2023-04-30T21:32:58.958Z,100605.44
2023-04-30T21:36:01.648Z,100607.34
2023-04-30T21:39:04.374Z,100617.78
2023-04-30T21:42:06.864Z,100617.41
2023-04-30T21:45:09.986Z,100618.38
2023-04-30T21:48:12.351Z,100615.81
2023-04-30T21:51:15.279Z,100627.44
2023-04-30T21:54:19.338Z,100626.41
2023-04-30T21:57:21.701Z,100625.03
2023-04-30T22:00:24.083Z,100631.84
2023-04-30T22:03:26.734Z,100636.66
2023-04-30T22:06:29.746Z,100637.06
2023-04-30T22:09:32.119Z,100632.66
2023-04-30T22:12:34.710Z,100629.06
2023-04-30T22:15:47.228Z,100639.69
2023-04-30T22:18:50.702Z,100639.50
2023-04-30T22:21:53.116Z,100640.91
2023-04-30T22:24:55.918Z,100638.69
2023-04-30T22:27:58.268Z,100641.69
2023-04-30T22:31:00.713Z,100648.09
2023-04-30T22:34:03.253Z,100653.31
2023-04-30T22:37:06.025Z,100646.72
2023-04-30T22:40:08.864Z,100624.06
2023-04-30T22:43:11.747Z,100649.09
2023-04-30T22:46:14.306Z,100657.34
2023-04-30T22:49:27.618Z,100656.72
2023-04-30T22:52:33.277Z,100657.34
2023-04-30T22:55:36.003Z,100661.50
2023-04-30T22:58:38.405Z,100670.03
2023-04-30T23:01:40.729Z,100668.06
2023-04-30T23:04:43.123Z,100675.81
2023-04-30T23:07:49.453Z,100644.66
2023-04-30T23:10:53.232Z,100667.69
2023-04-30T23:13:55.885Z,100678.25
2023-04-30T23:16:58.341Z,100674.69
2023-04-30T23:20:00.890Z,100676.72
2023-04-30T23:23:03.225Z,100675.41
2023-04-30T23:26:05.572Z,100678.31
2023-04-30T23:29:07.877Z,100681.22
2023-04-30T23:32:10.287Z,100689.97
2023-04-30T23:35:12.776Z,100663.56
2023-04-30T23:38:15.310Z,100680.81
2023-04-30T23:41:17.885Z,100698.19
2023-04-30T23:44:20.974Z,100694.81
2023-04-30T23:47:23.768Z,100702.69
2023-04-30T23:50:26.341Z,100686.56
2023-04-30T23:53:29.018Z,100685.81
2023-04-30T23:56:33.428Z,100690.66
2023-04-30T23:59:35.762Z,100691.44
